createdAt,value
2018-08-31T00:02:13.370Z,100512.00
2018-08-31T00:05:04.040Z,100513.00
2018-08-31T00:07:57.746Z,100509.00
2018-08-31T00:10:45.437Z,100506.00
2018-08-31T00:13:12.980Z,100508.00
2018-08-31T00:15:40.536Z,100502.00
2018-08-31T00:18:08.092Z,100499.00
2018-08-31T00:20:35.662Z,100506.00
2018-08-31T00:23:03.222Z,100510.00
2018-08-31T00:26:19.809Z,100506.00
2018-08-31T00:29:47.289Z,100501.00
2018-08-31T00:34:34.510Z,100511.00
2018-08-31T00:37:23.900Z,100507.00
2018-08-31T00:40:13.076Z,100507.00
2018-08-31T00:45:04.543Z,100506.00
2018-08-31T00:47:32.085Z,100505.00
2018-08-31T00:49:59.649Z,100504.00
2018-08-31T00:52:27.197Z,100505.00
2018-08-31T00:54:54.772Z,100509.00
2018-08-31T00:57:22.308Z,100505.00
2018-08-31T00:59:49.870Z,100499.00
2018-08-31T01:02:17.443Z,100508.00
2018-08-31T01:04:45.009Z,100521.00
2018-08-31T01:07:12.568Z,100521.00
2018-08-31T01:09:40.173Z,100518.00
2018-08-31T01:12:08.054Z,100515.00
2018-08-31T01:14:35.640Z,100516.00
2018-08-31T01:17:03.396Z,100510.00
2018-08-31T01:19:30.952Z,100508.00
2018-08-31T01:21:58.820Z,100509.00
2018-08-31T01:24:26.450Z,100510.00
2018-08-31T01:26:54.046Z,100510.00
2018-08-31T01:29:21.598Z,100523.00
2018-08-31T01:31:49.152Z,100510.00
2018-08-31T01:34:16.705Z,100506.00
2018-08-31T01:36:44.266Z,100510.00
2018-08-31T01:39:11.833Z,100507.00
2018-08-31T01:41:39.375Z,100508.00
2018-08-31T01:44:06.924Z,100511.00
2018-08-31T01:46:34.474Z,100505.00
2018-08-31T01:49:02.341Z,100507.00
2018-08-31T01:51:29.888Z,100509.00
2018-08-31T01:53:57.441Z,100525.00
2018-08-31T01:56:24.998Z,100516.00
2018-08-31T01:58:52.562Z,100527.00
2018-08-31T02:01:20.117Z,100520.00
2018-08-31T02:03:47.687Z,100525.00
2018-08-31T02:06:15.276Z,100521.00
2018-08-31T02:08:48.724Z,100527.00
2018-08-31T02:11:16.272Z,100519.00
2018-08-31T02:13:43.856Z,100520.00
2018-08-31T02:16:11.428Z,100513.00
2018-08-31T02:18:38.972Z,100525.00
2018-08-31T02:21:06.516Z,100516.00
2018-08-31T02:23:34.068Z,100513.00
2018-08-31T02:26:01.624Z,100517.00
2018-08-31T02:28:29.192Z,100516.00
2018-08-31T02:30:56.744Z,100527.00
2018-08-31T02:33:24.280Z,100521.00
2018-08-31T02:35:51.832Z,100526.00
2018-08-31T02:38:19.366Z,100525.00
2018-08-31T02:40:46.909Z,100523.00
2018-08-31T02:43:14.488Z,100526.00
2018-08-31T02:45:42.032Z,100517.00
2018-08-31T02:48:09.573Z,100533.00
2018-08-31T02:50:37.128Z,100518.00
2018-08-31T02:53:05.099Z,100523.00
2018-08-31T02:55:32.666Z,100523.00
2018-08-31T02:58:00.217Z,100520.00
2018-08-31T03:00:27.776Z,100519.00
2018-08-31T03:02:55.388Z,100526.00
2018-08-31T03:05:22.944Z,100528.00
2018-08-31T03:07:50.505Z,100525.00
2018-08-31T03:10:18.052Z,100522.00
2018-08-31T03:12:45.604Z,100524.00
2018-08-31T03:15:13.152Z,100525.00
2018-08-31T03:17:40.704Z,100521.00
2018-08-31T03:20:08.258Z,100523.00
2018-08-31T03:22:35.804Z,100518.00
2018-08-31T03:25:03.351Z,100518.00
2018-08-31T03:27:30.913Z,100520.00
2018-08-31T03:29:58.458Z,100513.00
2018-08-31T03:32:26.075Z,100515.00
2018-08-31T03:34:53.573Z,100516.00
2018-08-31T03:37:21.133Z,100515.00
2018-08-31T03:39:48.693Z,100508.00
2018-08-31T03:42:16.237Z,100521.00
2018-08-31T03:44:43.792Z,100512.00
2018-08-31T03:47:11.339Z,100516.00
2018-08-31T03:49:38.900Z,100508.00
2018-08-31T03:52:06.480Z,100515.00
2018-08-31T03:54:34.036Z,100520.00
2018-08-31T03:57:01.604Z,100521.00
2018-08-31T03:59:29.153Z,100528.00
2018-08-31T04:01:56.690Z,100530.00
2018-08-31T04:04:24.238Z,100528.00
2018-08-31T04:06:51.793Z,100532.00
2018-08-31T04:09:19.320Z,100528.00
2018-08-31T04:11:46.883Z,100521.00
2018-08-31T04:14:14.509Z,100528.00
2018-08-31T04:16:42.062Z,100530.00
2018-08-31T04:19:17.356Z,100530.00
2018-08-31T04:21:45.520Z,100537.00
2018-08-31T04:24:14.425Z,100540.00
2018-08-31T04:26:42.031Z,100539.00
2018-08-31T04:29:10.057Z,100548.00
2018-08-31T04:31:37.916Z,100554.00
2018-08-31T04:34:05.761Z,100557.00
2018-08-31T04:36:33.298Z,100546.00
2018-08-31T04:39:00.884Z,100555.00
2018-08-31T04:41:28.440Z,100547.00
2018-08-31T04:43:55.982Z,100549.00
2018-08-31T04:46:23.557Z,100536.00
2018-08-31T04:48:51.133Z,100539.00
2018-08-31T04:51:18.670Z,100537.00
2018-08-31T04:53:46.212Z,100546.00
2018-08-31T04:56:13.768Z,100547.00
2018-08-31T04:58:41.330Z,100556.00
2018-08-31T05:01:08.886Z,100548.00
2018-08-31T05:03:36.461Z,100559.00
2018-08-31T05:06:04.022Z,100560.00
2018-08-31T05:08:31.581Z,100546.00
2018-08-31T05:10:59.156Z,100548.00
2018-08-31T05:13:26.724Z,100555.00
2018-08-31T05:15:54.295Z,100551.00
2018-08-31T05:18:21.849Z,100560.00
2018-08-31T05:20:49.389Z,100561.00
2018-08-31T05:23:43.468Z,100553.00
2018-08-31T05:26:11.092Z,100562.00
2018-08-31T05:28:38.660Z,100556.00
2018-08-31T05:31:06.240Z,100562.00
2018-08-31T05:33:33.882Z,100564.00
2018-08-31T05:36:01.428Z,100561.00
2018-08-31T05:38:28.973Z,100582.00
2018-08-31T05:40:56.530Z,100577.00
2018-08-31T05:43:24.080Z,100571.00
2018-08-31T05:45:51.865Z,100581.00
2018-08-31T05:48:19.413Z,100577.00
2018-08-31T05:50:46.972Z,100574.00
2018-08-31T05:53:14.528Z,100573.00
2018-08-31T05:55:42.089Z,100580.00
2018-08-31T05:58:09.645Z,100579.00
2018-08-31T06:00:37.221Z,100571.00
2018-08-31T06:03:04.798Z,100577.00
2018-08-31T06:05:32.348Z,100588.00
2018-08-31T06:07:59.904Z,100587.00
2018-08-31T06:10:27.480Z,100587.00
2018-08-31T06:12:55.037Z,100593.00
2018-08-31T06:15:22.585Z,100587.00
2018-08-31T06:17:50.141Z,100596.00
2018-08-31T06:20:17.716Z,100589.00
2018-08-31T06:22:45.271Z,100595.00
2018-08-31T06:25:12.840Z,100594.00
2018-08-31T06:27:40.508Z,100589.00
2018-08-31T06:30:08.236Z,100591.00
2018-08-31T06:32:35.833Z,100594.00
2018-08-31T06:35:03.439Z,100591.00
2018-08-31T06:37:31.020Z,100588.00
2018-08-31T06:39:58.582Z,100580.00
2018-08-31T06:42:26.148Z,100581.00
2018-08-31T06:44:53.750Z,100590.00
2018-08-31T06:47:21.326Z,100589.00
2018-08-31T06:49:48.899Z,100596.00
2018-08-31T06:52:16.452Z,100598.00
2018-08-31T06:54:43.992Z,100595.00
2018-08-31T06:57:11.545Z,100607.00
2018-08-31T06:59:39.096Z,100594.00
2018-08-31T07:02:06.646Z,100602.00
2018-08-31T07:04:34.246Z,100590.00
2018-08-31T07:07:01.826Z,100608.00
2018-08-31T07:09:29.378Z,100604.00
2018-08-31T07:11:56.966Z,100610.00
2018-08-31T07:14:24.516Z,100608.00
2018-08-31T07:16:52.045Z,100609.00
2018-08-31T07:19:19.648Z,100615.00
2018-08-31T07:21:47.172Z,100622.00
2018-08-31T07:24:14.736Z,100633.00
2018-08-31T07:26:42.288Z,100624.00
2018-08-31T07:29:09.883Z,100634.00
2018-08-31T07:31:37.434Z,100631.00
2018-08-31T07:34:05.268Z,100636.00
2018-08-31T07:36:32.821Z,100632.00
2018-08-31T07:39:00.373Z,100641.00
2018-08-31T07:41:27.910Z,100635.00
2018-08-31T07:43:55.466Z,100641.00
2018-08-31T07:46:23.006Z,100644.00
2018-08-31T07:48:50.533Z,100648.00
2018-08-31T07:51:18.086Z,100644.00
2018-08-31T07:53:45.683Z,100655.00
2018-08-31T07:56:13.225Z,100643.00
2018-08-31T07:58:40.804Z,100642.00
2018-08-31T08:01:33.648Z,100626.00
2018-08-31T08:04:01.228Z,100637.00
2018-08-31T08:09:30.231Z,100641.00
2018-08-31T08:11:57.781Z,100640.00
2018-08-31T08:14:25.337Z,100648.00
2018-08-31T08:16:52.881Z,100640.00
2018-08-31T08:19:20.457Z,100643.00
2018-08-31T08:21:48.022Z,100636.00
2018-08-31T08:24:15.590Z,100626.00
2018-08-31T08:26:43.142Z,100627.00
2018-08-31T08:29:10.780Z,100627.00
2018-08-31T08:31:38.520Z,100628.00
2018-08-31T08:34:06.076Z,100620.00
2018-08-31T08:36:33.620Z,100629.00
2018-08-31T08:39:08.374Z,100629.00
2018-08-31T08:41:35.937Z,100636.00
2018-08-31T08:44:03.607Z,100637.00
2018-08-31T08:46:31.165Z,100646.00
2018-08-31T08:48:58.720Z,100640.00
2018-08-31T08:51:26.279Z,100653.00
2018-08-31T08:53:53.834Z,100660.00
2018-08-31T08:56:21.426Z,100657.00
2018-08-31T08:58:48.976Z,100661.00
2018-08-31T09:01:16.540Z,100653.00
2018-08-31T09:03:44.098Z,100647.00
2018-08-31T09:06:11.673Z,100655.00
2018-08-31T09:08:39.221Z,100656.00
2018-08-31T09:11:06.785Z,100665.00
2018-08-31T09:13:34.329Z,100660.00
2018-08-31T09:16:01.908Z,100662.00
2018-08-31T09:18:29.469Z,100666.00
2018-08-31T09:20:57.268Z,100670.00
2018-08-31T09:23:25.333Z,100683.00
2018-08-31T09:25:53.648Z,100674.00
2018-08-31T09:28:21.188Z,100668.00
2018-08-31T09:30:48.786Z,100667.00
2018-08-31T09:33:17.115Z,100663.00
2018-08-31T09:35:44.760Z,100665.00
2018-08-31T09:38:12.546Z,100655.00
2018-08-31T09:40:40.096Z,100659.00
2018-08-31T09:43:08.273Z,100672.00
2018-08-31T09:45:35.825Z,100673.00
2018-08-31T09:48:04.117Z,100673.00
2018-08-31T09:50:31.660Z,100675.00
2018-08-31T09:52:59.197Z,100684.00
2018-08-31T09:55:26.753Z,100677.00
2018-08-31T09:57:54.314Z,100673.00
2018-08-31T10:00:27.584Z,100680.00
2018-08-31T10:03:00.862Z,100679.00
2018-08-31T10:05:28.420Z,100656.00
2018-08-31T10:07:55.982Z,100659.00
2018-08-31T10:10:23.657Z,100659.00
2018-08-31T10:12:51.202Z,100648.00
2018-08-31T10:15:18.800Z,100647.00
2018-08-31T10:17:46.344Z,100650.00
2018-08-31T10:20:13.957Z,100661.00
2018-08-31T10:22:41.536Z,100653.00
2018-08-31T10:25:09.095Z,100641.00
2018-08-31T10:27:36.645Z,100644.00
2018-08-31T10:30:05.379Z,100645.00
2018-08-31T10:32:33.012Z,100638.00
2018-08-31T10:35:00.572Z,100649.00
2018-08-31T10:37:28.108Z,100635.00
2018-08-31T10:39:55.668Z,100651.00
2018-08-31T10:42:23.212Z,100642.00
2018-08-31T10:44:50.770Z,100646.00
2018-08-31T10:47:18.328Z,100637.00
2018-08-31T10:49:45.894Z,100646.00
2018-08-31T10:52:13.466Z,100634.00
2018-08-31T10:54:41.032Z,100642.00
2018-08-31T10:57:08.593Z,100645.00
2018-08-31T10:59:36.159Z,100641.00
2018-08-31T11:02:03.741Z,100640.00
2018-08-31T11:04:31.290Z,100638.00
2018-08-31T11:06:58.836Z,100645.00
2018-08-31T11:09:26.381Z,100633.00
2018-08-31T11:11:53.966Z,100637.00
2018-08-31T11:14:21.520Z,100634.00
2018-08-31T11:16:49.084Z,100638.00
2018-08-31T11:19:16.621Z,100635.00
2018-08-31T11:21:44.178Z,100635.00
2018-08-31T11:24:11.732Z,100633.00
2018-08-31T11:26:39.285Z,100627.00
2018-08-31T11:29:06.848Z,100630.00
2018-08-31T11:31:34.408Z,100633.00
2018-08-31T11:34:01.945Z,100623.00
2018-08-31T11:36:29.499Z,100628.00
2018-08-31T11:38:57.050Z,100629.00
2018-08-31T11:41:24.608Z,100628.00
2018-08-31T11:43:52.149Z,100629.00
2018-08-31T11:46:19.692Z,100630.00
2018-08-31T11:48:47.240Z,100643.00
2018-08-31T11:51:14.824Z,100633.00
2018-08-31T11:53:42.367Z,100635.00
2018-08-31T11:56:09.960Z,100642.00
2018-08-31T11:58:37.538Z,100635.00
2018-08-31T12:01:06.432Z,100640.00
2018-08-31T12:03:33.886Z,100637.00
2018-08-31T12:06:01.464Z,100627.00
2018-08-31T12:08:29.044Z,100626.00
2018-08-31T12:10:56.569Z,100624.00
2018-08-31T12:13:24.100Z,100630.00
2018-08-31T12:15:51.633Z,100627.00
2018-08-31T12:18:19.182Z,100631.00
2018-08-31T12:20:46.746Z,100631.00
2018-08-31T12:23:14.312Z,100631.00
2018-08-31T12:25:41.859Z,100638.00
2018-08-31T12:28:09.400Z,100640.00
2018-08-31T12:30:36.936Z,100634.00
2018-08-31T12:33:04.518Z,100621.00
2018-08-31T12:35:32.080Z,100622.00
2018-08-31T12:37:59.643Z,100623.00
2018-08-31T12:40:27.180Z,100613.00
2018-08-31T12:42:54.764Z,100612.00
2018-08-31T12:45:22.306Z,100616.00
2018-08-31T12:47:49.858Z,100616.00
2018-08-31T12:50:17.404Z,100620.00
2018-08-31T12:52:44.960Z,100629.00
2018-08-31T12:55:12.511Z,100629.00
2018-08-31T12:57:40.060Z,100618.00
2018-08-31T13:00:07.697Z,100623.00
2018-08-31T13:02:35.213Z,100622.00
2018-08-31T13:05:02.836Z,100614.00
2018-08-31T13:07:30.365Z,100611.00
2018-08-31T13:09:57.911Z,100608.00
2018-08-31T13:12:25.492Z,100606.00
2018-08-31T13:14:53.120Z,100603.00
2018-08-31T13:17:20.678Z,100599.00
2018-08-31T13:19:48.378Z,100603.00
2018-08-31T13:22:16.171Z,100611.00
2018-08-31T13:24:43.725Z,100610.00
2018-08-31T13:27:11.273Z,100600.00
2018-08-31T13:29:38.806Z,100603.00
2018-08-31T13:32:06.358Z,100612.00
2018-08-31T13:34:33.888Z,100613.00
2018-08-31T13:37:01.441Z,100610.00
2018-08-31T13:39:28.992Z,100605.00
2018-08-31T13:41:56.548Z,100604.00
2018-08-31T13:44:24.152Z,100606.00
2018-08-31T13:46:51.710Z,100586.00
2018-08-31T13:49:19.278Z,100592.00
2018-08-31T13:51:46.841Z,100603.00
2018-08-31T13:54:14.412Z,100595.00
2018-08-31T13:56:41.958Z,100604.00
2018-08-31T13:59:09.530Z,100597.00
2018-08-31T14:01:37.073Z,100592.00
2018-08-31T14:04:07.824Z,100598.00
2018-08-31T14:06:35.396Z,100616.00
2018-08-31T14:09:04.343Z,100612.00
2018-08-31T14:11:31.896Z,100620.00
2018-08-31T14:13:59.461Z,100627.00
2018-08-31T14:16:27.018Z,100625.00
2018-08-31T14:18:54.572Z,100626.00
2018-08-31T14:21:22.132Z,100622.00
2018-08-31T14:23:49.672Z,100621.00
2018-08-31T14:26:18.003Z,100618.00
2018-08-31T14:28:45.557Z,100620.00
2018-08-31T14:31:13.096Z,100613.00
2018-08-31T14:33:40.641Z,100614.00
2018-08-31T14:36:08.202Z,100617.00
2018-08-31T14:38:35.768Z,100618.00
2018-08-31T14:41:03.341Z,100620.00
2018-08-31T14:43:30.926Z,100614.00
2018-08-31T14:45:58.465Z,100610.00
2018-08-31T14:48:26.023Z,100610.00
2018-08-31T14:50:53.571Z,100604.00
2018-08-31T14:53:21.147Z,100605.00
2018-08-31T14:55:48.733Z,100607.00
2018-08-31T14:58:16.292Z,100606.00
2018-08-31T15:00:43.856Z,100607.00
2018-08-31T15:03:11.401Z,100607.00
2018-08-31T15:05:38.958Z,100603.00
2018-08-31T15:08:06.529Z,100605.00
2018-08-31T15:10:34.082Z,100606.00
2018-08-31T15:13:01.689Z,100604.00
2018-08-31T15:15:29.195Z,100600.00
2018-08-31T15:17:56.780Z,100599.00
2018-08-31T15:20:24.329Z,100605.00
2018-08-31T15:22:51.885Z,100597.00
2018-08-31T15:25:19.490Z,100588.00
2018-08-31T15:27:53.823Z,100595.00
2018-08-31T15:30:21.389Z,100587.00
2018-08-31T15:32:48.948Z,100601.00
2018-08-31T15:35:16.472Z,100589.00
2018-08-31T15:37:44.024Z,100594.00
2018-08-31T15:40:11.580Z,100593.00
2018-08-31T15:42:39.183Z,100592.00
2018-08-31T15:45:06.756Z,100586.00
2018-08-31T15:47:34.326Z,100583.00
2018-08-31T15:50:01.923Z,100587.00
2018-08-31T15:52:29.496Z,100573.00
2018-08-31T15:54:57.039Z,100579.00
2018-08-31T15:57:24.588Z,100576.00
2018-08-31T15:59:52.124Z,100575.00
2018-08-31T16:02:19.681Z,100577.00
2018-08-31T16:04:47.228Z,100577.00
2018-08-31T16:07:14.817Z,100583.00
2018-08-31T16:09:42.376Z,100565.00
2018-08-31T16:12:09.925Z,100570.00
2018-08-31T16:14:37.477Z,100576.00
2018-08-31T16:17:05.032Z,100583.00
2018-08-31T16:19:32.589Z,100575.00
2018-08-31T16:22:00.141Z,100575.00
2018-08-31T16:24:27.692Z,100576.00
2018-08-31T16:26:55.242Z,100575.00
2018-08-31T16:29:22.806Z,100574.00
2018-08-31T16:31:50.340Z,100579.00
2018-08-31T16:34:17.902Z,100578.00
2018-08-31T16:36:45.436Z,100587.00
2018-08-31T16:39:12.963Z,100583.00
2018-08-31T16:41:40.518Z,100591.00
2018-08-31T16:47:08.385Z,100583.00
2018-08-31T16:49:35.924Z,100586.00
2018-08-31T16:52:03.502Z,100590.00
2018-08-31T16:54:31.057Z,100579.00
2018-08-31T16:56:58.613Z,100599.00
2018-08-31T16:59:26.186Z,100590.00
2018-08-31T17:01:53.733Z,100601.00
2018-08-31T17:04:21.284Z,100597.00
2018-08-31T17:06:48.834Z,100591.00
2018-08-31T17:09:16.381Z,100597.00
2018-08-31T17:11:43.922Z,100598.00
2018-08-31T17:14:11.480Z,100597.00
2018-08-31T17:16:39.217Z,100604.00
2018-08-31T17:19:06.772Z,100604.00
2018-08-31T17:21:34.384Z,100601.00
2018-08-31T17:24:01.962Z,100610.00
2018-08-31T17:26:35.322Z,100610.00
2018-08-31T17:29:08.616Z,100608.00
2018-08-31T17:31:41.913Z,100609.00
2018-08-31T17:34:15.242Z,100616.00
2018-08-31T17:36:48.570Z,100611.00
2018-08-31T17:39:16.140Z,100620.00
2018-08-31T17:41:43.680Z,100609.00
2018-08-31T17:44:11.257Z,100608.00
2018-08-31T17:46:38.808Z,100608.00
2018-08-31T17:49:06.384Z,100607.00
2018-08-31T17:51:33.938Z,100610.00
2018-08-31T17:54:01.549Z,100607.00
2018-08-31T17:56:29.234Z,100613.00
2018-08-31T17:58:56.708Z,100615.00
2018-08-31T18:01:24.504Z,100620.00
2018-08-31T18:03:52.046Z,100619.00
2018-08-31T18:06:19.575Z,100625.00
2018-08-31T18:08:47.146Z,100626.00
2018-08-31T18:11:14.696Z,100628.00
2018-08-31T18:13:42.236Z,100630.00
2018-08-31T18:16:09.823Z,100636.00
2018-08-31T18:18:37.368Z,100630.00
2018-08-31T18:21:05.448Z,100628.00
2018-08-31T18:23:33.001Z,100633.00
2018-08-31T18:26:00.586Z,100630.00
2018-08-31T18:28:33.878Z,100629.00
2018-08-31T18:31:01.415Z,100630.00
2018-08-31T18:33:28.961Z,100632.00
2018-08-31T18:35:56.520Z,100638.00
2018-08-31T18:38:24.044Z,100644.00
2018-08-31T18:40:51.605Z,100636.00
2018-08-31T18:43:19.148Z,100644.00
2018-08-31T18:45:46.732Z,100645.00
2018-08-31T18:48:22.590Z,100640.00
2018-08-31T18:50:50.132Z,100643.00
2018-08-31T18:53:34.777Z,100655.00
2018-08-31T18:56:02.332Z,100657.00
2018-08-31T18:58:29.864Z,100656.00
2018-08-31T19:00:57.409Z,100655.00
2018-08-31T19:03:24.954Z,100656.00
2018-08-31T19:05:52.553Z,100669.00
2018-08-31T19:08:20.105Z,100664.00
2018-08-31T19:10:47.650Z,100665.00
2018-08-31T19:13:15.184Z,100661.00
2018-08-31T19:15:42.730Z,100670.00
2018-08-31T19:18:10.274Z,100666.00
2018-08-31T19:20:48.100Z,100677.00
2018-08-31T19:23:28.540Z,100672.00
2018-08-31T19:25:56.104Z,100685.00
2018-08-31T19:28:23.665Z,100681.00
2018-08-31T19:30:51.233Z,100680.00
2018-08-31T19:33:18.796Z,100678.00
2018-08-31T19:35:46.348Z,100681.00
2018-08-31T19:38:22.217Z,100681.00
2018-08-31T19:41:19.830Z,100684.00
2018-08-31T19:43:47.448Z,100683.00
2018-08-31T19:46:14.991Z,100688.00
2018-08-31T19:48:42.515Z,100685.00
2018-08-31T19:51:10.060Z,100687.00
2018-08-31T19:53:37.668Z,100684.00
2018-08-31T19:56:05.198Z,100684.00
2018-08-31T19:58:32.744Z,100688.00
2018-08-31T20:01:00.293Z,100694.00
2018-08-31T20:03:27.874Z,100708.00
2018-08-31T20:05:55.437Z,100703.00
2018-08-31T20:08:23.084Z,100702.00
2018-08-31T20:10:50.644Z,100706.00
2018-08-31T20:13:18.231Z,100706.00
2018-08-31T20:15:45.766Z,100707.00
2018-08-31T20:18:17.133Z,100696.00
2018-08-31T20:20:44.677Z,100704.00
2018-08-31T20:26:39.808Z,100712.00
2018-08-31T20:29:08.368Z,100710.00
2018-08-31T20:31:35.926Z,100718.00
2018-08-31T20:34:03.486Z,100715.00
2018-08-31T20:36:31.045Z,100724.00
2018-08-31T20:38:58.596Z,100731.00
2018-08-31T20:41:26.162Z,100721.00
2018-08-31T20:43:53.724Z,100726.00
2018-08-31T20:46:21.286Z,100715.00
2018-08-31T20:48:48.833Z,100727.00
2018-08-31T20:51:16.384Z,100713.00
2018-08-31T20:53:43.942Z,100714.00
2018-08-31T20:56:11.500Z,100721.00
2018-08-31T20:58:39.054Z,100732.00
2018-08-31T21:01:06.613Z,100729.00
2018-08-31T21:03:34.165Z,100731.00
2018-08-31T21:06:01.724Z,100733.00
2018-08-31T21:08:29.280Z,100729.00
2018-08-31T21:10:56.826Z,100741.00
2018-08-31T21:13:24.364Z,100734.00
2018-08-31T21:15:51.923Z,100740.00
2018-08-31T21:18:19.479Z,100746.00
2018-08-31T21:20:47.025Z,100753.00
2018-08-31T21:23:14.551Z,100748.00
2018-08-31T21:25:42.104Z,100736.00
2018-08-31T21:28:09.654Z,100744.00
2018-08-31T21:30:37.211Z,100743.00
2018-08-31T21:33:04.809Z,100754.00
2018-08-31T21:35:32.382Z,100745.00
2018-08-31T21:37:59.938Z,100732.00
2018-08-31T21:40:27.527Z,100741.00
2018-08-31T21:42:55.057Z,100732.00
2018-08-31T21:45:22.619Z,100741.00
2018-08-31T21:47:50.169Z,100738.00
2018-08-31T21:50:17.720Z,100736.00
2018-08-31T21:52:50.836Z,100741.00
2018-08-31T21:55:18.465Z,100734.00
2018-08-31T21:57:45.992Z,100741.00
2018-08-31T22:00:16.639Z,100748.00
2018-08-31T22:02:44.176Z,100751.00
2018-08-31T22:05:11.759Z,100758.00
2018-08-31T22:07:39.312Z,100763.00
2018-08-31T22:10:06.953Z,100765.00
2018-08-31T22:12:34.524Z,100769.00
2018-08-31T22:15:02.082Z,100769.00
2018-08-31T22:17:29.884Z,100765.00
2018-08-31T22:19:57.428Z,100776.00
2018-08-31T22:22:24.996Z,100766.00
2018-08-31T22:24:52.532Z,100772.00
2018-08-31T22:27:20.364Z,100769.00
2018-08-31T22:29:47.900Z,100772.00
2018-08-31T22:32:15.467Z,100768.00
2018-08-31T22:34:43.009Z,100761.00
2018-08-31T22:37:10.560Z,100744.00
2018-08-31T22:39:38.096Z,100746.00
2018-08-31T22:42:05.649Z,100738.00
2018-08-31T22:44:35.284Z,100740.00
2018-08-31T22:47:04.008Z,100742.00
2018-08-31T22:49:31.574Z,100741.00
2018-08-31T22:51:59.125Z,100737.00
2018-08-31T22:54:26.796Z,100749.00
2018-08-31T22:56:54.527Z,100740.00
2018-08-31T22:59:22.082Z,100740.00
2018-08-31T23:01:49.620Z,100740.00
2018-08-31T23:04:17.310Z,100728.00
2018-08-31T23:06:44.875Z,100736.00
2018-08-31T23:09:12.421Z,100727.00
2018-08-31T23:11:39.981Z,100731.00
2018-08-31T23:14:07.525Z,100744.00
2018-08-31T23:16:35.073Z,100747.00
2018-08-31T23:19:02.616Z,100741.00
2018-08-31T23:21:30.169Z,100731.00
2018-08-31T23:23:57.712Z,100730.00
2018-08-31T23:26:25.253Z,100737.00
2018-08-31T23:28:52.841Z,100741.00
2018-08-31T23:31:20.366Z,100738.00
2018-08-31T23:33:47.964Z,100739.00
2018-08-31T23:36:15.518Z,100734.00
2018-08-31T23:38:43.055Z,100738.00
2018-08-31T23:41:10.592Z,100738.00
2018-08-31T23:43:38.127Z,100738.00
2018-08-31T23:46:05.692Z,100736.00
2018-08-31T23:48:33.239Z,100740.00
2018-08-31T23:51:00.818Z,100733.00
2018-08-31T23:53:28.377Z,100732.00
2018-08-31T23:55:55.919Z,100724.00
2018-08-31T23:58:23.462Z,100726.00
